Jackpot Winner Ceme

Jackpot hanya dapat di beli di awal sebelum periode tersebut berjalan dan jika berhasil maka anda dapat melihat di sisi kiri bawah atau kiri atas akan terdapat notifikasi bahwa jackpot anda berhasil di beli.

Jika anda membeli jackpot di tengah permainan maka pembelian jackpot akan berlaku untuk periode selanjutnya.

Jackpot dilihat dari gabungan kartu pemain dengan kartu bandar. Bandar harus membeli jackpot sebanyak jumlah player yang sedang duduk. Sebagai contoh bila terdapat 3 pemain duduk bermain, dan bandar memutuskan untuk membeli jackpot Rp 1.000, maka pada periode tersebut bandar akan membeli jackpot sebanyak 3xRp1.000 = Rp3.000.

Jackpot bukanlah suatu keharusan untuk dibeli, namun kami memberikan suatu fitur tambahan untuk member tercinta dari www.npdomino.com.

Terdapat tiga pilihan harga jackpot yang bisa anda beli yaitu :100,500 dan 1000 rupiah.

Hadiah dari Multi jackpot system www.npdomino.com

  1. Murni Kecil x 50 harga jackpot yang anda beli.
      (contoH:anda membeli 1000 maka:1000 X 50 = 50.000)
  2. Murni Besar x 50 harga jackpot yang anda beli
      (contoH:anda membeli 1000 maka:1000 X 50 = 50.000)
  3. BALAK x 200 harga jackpot yang anda beli
      (contoH:anda membeli 1000 maka:1000 X 200 = 200.000)
  4. ENAM DEWA x 6666 harga jackpot yang anda beli
      (contoH:anda membeli 1000 maka:1000 X 6666 = 6.666.000)

Demikian adalah penjelasan dari Multi Jackpot www.npdomino.com terima kasih dan selamat bermain salam hoki dari kami


Jackpot Winner

TOP ENAM DEWA
No. Tanggal Nama Price Win
1 21/05 22:05 ST4R0N388 murni enam 3,333,000
2 21/05 21:52 JAMBEE33 murni enam 3,333,000
3 21/05 21:51 PARNO887 murni enam 6,666,000
4 21/05 21:51 RASYAH545 murni enam 6,666,000
5 21/05 21:50 TVAV99 murni enam 6,666,000
TOP BALAK
No. Tanggal Nama Price Win
1 21/05 22:24 HOKIBAE123 balak 200,000
2 21/05 22:24 DITTYA0210 balak 100,000
3 21/05 22:24 CRANGAK_11 balak 200,000
4 21/05 22:23 CIMURAH890 balak 200,000
5 21/05 22:23 BOSTANI balak 200,000
LATEST JACKPOT
No. Tanggal Nama Price Win
1 21/05 22:24 HOKIBAE123 balak 200,000
2 21/05 22:24 A96DC5EE murni kecil 25,000
3 21/05 22:24 JACKPOTTRY murni kecil 50,000
4 21/05 22:24 BENCONG288 murni kecil 50,000
5 21/05 22:24 KANY03T murni kecil 50,000
6 21/05 22:24 GHOST1357 murni kecil 5,000
7 21/05 22:24 RENDYLA murni kecil 50,000
8 21/05 22:24 HAY16 murni kecil 5,000
9 21/05 22:24 Q807SINGA murni kecil 50,000
10 21/05 22:24 MEGANSALJU murni kecil 50,000
11 21/05 22:24 Q807SINGA murni kecil 50,000
12 21/05 22:24 ASMAT888 murni kecil 5,000
13 21/05 22:24 KELAMBU31 murni besar 25,000
14 21/05 22:24 DITTYA0210 balak 100,000
15 21/05 22:24 CRANGAK_11 balak 200,000
16 21/05 22:24 SYAH8888 murni kecil 25,000
17 21/05 22:24 REKSA99 murni kecil 50,000
18 21/05 22:24 SYAH8888 murni kecil 25,000
19 21/05 22:24 MKEYSHA9 murni kecil 50,000
20 21/05 22:24 ERZHEN84 murni kecil 50,000
21 21/05 22:23 GOLIONG588 murni besar 50,000
22 21/05 22:23 QIVEST murni kecil 25,000
23 21/05 22:23 PRIA_88 murni besar 25,000
24 21/05 22:23 CIMURAH890 balak 200,000
25 21/05 22:23 BOSTANI balak 200,000
26 21/05 22:23 DITTYA0210 murni besar 50,000
27 21/05 22:23 BF454CB3 murni besar 50,000
28 21/05 22:23 SHANRI murni besar 25,000
29 21/05 22:23 KIMICO murni besar 5,000
30 21/05 22:23 RAMAN1234 murni besar 25,000
31 21/05 22:23 TEDC25 murni besar 5,000
32 21/05 22:23 ALFAA1991 murni besar 25,000
33 21/05 22:23 BBBBX balak 20,000
34 21/05 22:23 VIZARO murni besar 25,000
35 21/05 22:23 GIDIL balak 20,000
36 21/05 22:23 HOKIBAE123 balak 200,000
37 21/05 22:23 DORA1992 murni besar 50,000
38 21/05 22:23 DHEDDY86 murni kecil 50,000
39 21/05 22:23 LOSTTEMPEK murni kecil 50,000
40 21/05 22:23 TOMY8989 murni kecil 50,000
41 21/05 22:23 SAKKO22 murni kecil 50,000
42 21/05 22:23 TAMENGQQ murni kecil 50,000
43 21/05 22:23 DIYANA1234 murni kecil 50,000
44 21/05 22:23 UWBMLHOGXX balak 200,000
45 21/05 22:23 ZIOZIFA balak 20,000
46 21/05 22:23 PENGKIK balak 200,000
47 21/05 22:23 TINGGEDE murni kecil 50,000
48 21/05 22:23 ALVES26 murni kecil 50,000
49 21/05 22:22 WEMPE balak 100,000
50 21/05 22:22 BIBITSALAK balak 20,000